Time;durP1;ratioP1;P1;durP2;ratioP2;P2;SDS_P1;SDS_P2;PMS_P1;PMS_P2;Temp;Humidity;BMP_temperature;BMP_pressure;BME280_temperature;BME280_humidity;BME280_pressure;Samples;Min_cycle;Max_cycle;Signal;HPM_P1;HPM_P2
2023/11/28 00:02:18;;;;;;;15.93;4.75;;;;;;;0.97;92.37;92464.72;5090737;28;20048;-78
2023/11/28 00:04:45;;;;;;;26.80;12.20;;;;;;;0.87;93.51;92456.56;5090893;28;20051;-78
2023/11/28 00:07:12;;;;;;;17.13;9.05;;;;;;;0.80;93.15;92429.44;5089340;28;20058;-78
2023/11/28 00:09:39;;;;;;;7.75;3.47;;;;;;;0.83;95.06;92430.06;5089611;28;20109;-79
2023/11/28 00:12:06;;;;;;;9.32;4.43;;;;;;;0.86;93.86;92440.63;5090639;28;20127;-78
2023/11/28 00:14:37;;;;;;;3.83;2.03;;;;;;;0.74;95.17;92430.09;5102048;28;20070;-78
2023/11/28 00:17:04;;;;;;;8.30;3.90;;;;;;;0.85;94.37;92431.47;5103761;28;20048;-77
2023/11/28 00:19:31;;;;;;;18.63;8.43;;;;;;;0.74;94.18;92419.22;5090408;28;20124;-77
2023/11/28 00:21:58;;;;;;;20.45;9.50;;;;;;;0.70;94.37;92417.97;5096982;28;20048;-78
2023/11/28 00:24:25;;;;;;;11.85;5.38;;;;;;;0.66;95.21;92417.53;5101447;28;20126;-77
2023/11/28 00:26:52;;;;;;;5.75;2.58;;;;;;;0.79;95.67;92414.44;5099705;28;20056;-77
2023/11/28 00:29:19;;;;;;;8.80;4.18;;;;;;;0.65;94.50;92414.22;5106180;28;20043;-77
2023/11/28 00:31:47;;;;;;;8.23;4.00;;;;;;;0.62;93.89;92403.66;5092517;28;20048;-77
2023/11/28 00:34:14;;;;;;;3.75;1.90;;;;;;;0.63;93.53;92407.75;5102516;28;20040;-75
2023/11/28 00:36:41;;;;;;;5.22;2.90;;;;;;;0.70;93.31;92405.34;5089294;28;20050;-75
2023/11/28 00:39:08;;;;;;;5.70;3.00;;;;;;;0.83;93.91;92414.88;5089415;28;20836;-76
2023/11/28 00:41:36;;;;;;;8.60;4.40;;;;;;;0.80;93.79;92416.00;5089341;28;20534;-76
2023/11/28 00:44:03;;;;;;;3.63;1.50;;;;;;;0.86;92.78;92410.28;5089353;28;20044;-76
2023/11/28 00:46:29;;;;;;;3.50;1.67;;;;;;;0.85;93.17;92372.53;5088668;28;20474;-77
2023/11/28 00:48:58;;;;;;;3.50;2.03;;;;;;;0.83;93.56;92384.56;5090080;28;20055;-76
2023/11/28 00:51:25;;;;;;;3.80;1.35;;;;;;;0.84;93.71;92397.03;5089413;28;20052;-77
2023/11/28 00:53:51;;;;;;;2.85;1.50;;;;;;;0.90;93.87;92391.28;5090547;28;20166;-77
2023/11/28 00:56:19;;;;;;;3.30;1.85;;;;;;;0.98;95.35;92385.38;5089124;28;20052;-77
2023/11/28 00:58:47;;;;;;;3.22;1.60;;;;;;;1.07;95.50;92378.50;5090180;28;20049;-77
2023/11/28 01:01:14;;;;;;;2.97;1.30;;;;;;;1.01;95.22;92369.06;5089499;28;20125;-77
2023/11/28 01:03:41;;;;;;;3.92;1.73;;;;;;;0.88;95.54;92365.38;5090916;28;20080;-78
2023/11/28 01:06:10;;;;;;;3.72;1.67;;;;;;;1.08;95.71;92364.09;5088720;28;20048;-77
2023/11/28 01:08:37;;;;;;;2.50;1.17;;;;;;;1.05;95.21;92368.56;5087155;28;20058;-77
2023/11/28 01:11:04;;;;;;;5.38;1.77;;;;;;;1.05;95.67;92360.97;5088907;28;21310;-77
2023/11/28 01:13:34;;;;;;;3.20;1.42;;;;;;;1.09;96.08;92374.06;5090605;28;20508;-77
2023/11/28 01:16:02;;;;;;;2.90;1.23;;;;;;;1.15;95.56;92362.47;5089803;28;20414;-77
2023/11/28 01:18:28;;;;;;;3.85;1.85;;;;;;;1.12;96.17;92360.28;5106684;28;20043;-77
2023/11/28 01:20:55;;;;;;;2.60;1.42;;;;;;;1.06;96.30;92364.25;5091419;28;20058;-78
2023/11/28 01:23:24;;;;;;;6.07;2.25;;;;;;;1.15;96.63;92355.66;5088489;28;20487;-78
2023/11/28 01:25:50;;;;;;;2.83;1.17;;;;;;;1.04;98.02;92354.34;5090155;28;20044;-78
2023/11/28 01:28:17;;;;;;;3.70;1.70;;;;;;;1.08;97.48;92351.44;5089770;28;20055;-79
2023/11/28 01:30:44;;;;;;;4.32;2.80;;;;;;;1.06;98.28;92346.56;5092820;28;20059;-79
2023/11/28 01:33:11;;;;;;;4.05;1.88;;;;;;;1.02;98.50;92350.41;5088471;28;20044;-77
2023/11/28 01:35:39;;;;;;;5.05;1.80;;;;;;;1.04;99.14;92344.22;5087990;28;20089;-78
2023/11/28 01:38:06;;;;;;;3.63;1.38;;;;;;;1.18;98.54;92334.28;5088992;28;20735;-79
2023/11/28 01:40:34;;;;;;;5.07;2.42;;;;;;;1.12;99.48;92325.66;5089523;28;20047;-79
2023/11/28 01:43:13;;;;;;;5.60;1.50;;;;;;;1.10;98.78;92309.84;5088615;28;20865;-79
2023/11/28 01:45:40;;;;;;;5.35;2.03;;;;;;;1.06;99.88;92322.06;5088424;28;20079;-78
2023/11/28 01:48:07;;;;;;;4.43;1.75;;;;;;;1.13;100.00;92328.97;5088171;28;20059;-77
2023/11/28 01:50:34;;;;;;;5.03;1.67;;;;;;;1.04;100.00;92315.59;5089068;28;20156;-77
2023/11/28 01:53:01;;;;;;;3.40;1.73;;;;;;;1.03;100.00;92307.22;5095830;28;20054;-78
2023/11/28 01:55:27;;;;;;;2.53;1.20;;;;;;;1.06;100.00;92308.63;5088435;28;20159;-78
2023/11/28 01:57:56;;;;;;;2.92;0.90;;;;;;;0.99;99.99;92305.22;5091501;28;20047;-78
2023/11/28 02:00:23;;;;;;;3.20;1.08;;;;;;;1.10;99.94;92302.25;5088668;28;20048;-79
2023/11/28 02:02:50;;;;;;;2.03;1.02;;;;;;;1.02;100.00;92308.19;5090076;28;20052;-81
2023/11/28 02:05:18;;;;;;;4.82;1.75;;;;;;;0.94;99.84;92308.28;5087049;28;20044;-78
2023/11/28 02:07:46;;;;;;;1.58;0.82;;;;;;;1.05;100.00;92302.78;5087338;28;20526;-78
2023/11/28 02:10:13;;;;;;;2.70;1.23;;;;;;;1.07;100.00;92295.03;5088897;28;20048;-79
2023/11/28 02:12:43;;;;;;;3.60;1.27;;;;;;;1.01;100.00;92288.91;5088173;28;20044;-78
2023/11/28 02:15:15;;;;;;;2.25;1.23;;;;;;;0.98;98.92;92285.97;5093752;28;20089;-77
2023/11/28 02:17:42;;;;;;;4.13;1.67;;;;;;;0.88;100.00;92271.81;5088033;28;20040;-77
2023/11/28 02:20:10;;;;;;;2.72;1.35;;;;;;;1.02;100.00;92285.44;5087359;28;20141;-78
2023/11/28 02:22:37;;;;;;;2.80;1.27;;;;;;;0.87;100.00;92272.00;5095961;28;20052;-78
2023/11/28 02:25:06;;;;;;;3.45;1.40;;;;;;;0.98;100.00;92271.59;5087466;28;20052;-78
2023/11/28 02:27:34;;;;;;;3.00;1.50;;;;;;;0.93;100.00;92274.63;5103384;28;20132;-78
2023/11/28 02:30:01;;;;;;;4.47;1.33;;;;;;;1.03;100.00;92276.09;5101591;28;20575;-78
2023/11/28 02:32:28;;;;;;;2.40;1.52;;;;;;;0.94;100.00;92262.78;5087898;28;20050;-78
2023/11/28 02:34:55;;;;;;;4.53;1.20;;;;;;;1.00;100.00;92261.28;5088992;28;20054;-78
2023/11/28 02:37:22;;;;;;;2.90;1.70;;;;;;;1.05;100.00;92239.56;5087897;28;20051;-79
2023/11/28 02:39:50;;;;;;;2.67;1.52;;;;;;;1.09;100.00;92242.53;5088660;28;20522;-77
2023/11/28 02:42:17;;;;;;;2.72;1.40;;;;;;;1.14;100.00;92244.53;5087353;28;20044;-78
2023/11/28 02:44:49;;;;;;;2.85;1.30;;;;;;;1.14;100.00;92242.78;5089980;28;20051;-78
2023/11/28 02:47:16;;;;;;;3.17;1.65;;;;;;;1.16;100.00;92243.38;5087615;28;20052;-79
2023/11/28 02:49:43;;;;;;;3.53;1.48;;;;;;;1.22;100.00;92246.97;5089941;28;20044;-78
2023/11/28 02:52:10;;;;;;;3.75;1.50;;;;;;;1.26;100.00;92240.59;5093970;28;20048;-79
2023/11/28 02:54:37;;;;;;;4.22;1.30;;;;;;;1.30;100.00;92246.84;5087193;28;20044;-79
2023/11/28 02:57:04;;;;;;;6.95;1.55;;;;;;;1.20;100.00;92218.53;5089512;28;20428;-78
2023/11/28 02:59:31;;;;;;;5.97;1.60;;;;;;;1.31;100.00;92229.94;5098182;28;20048;-79
2023/11/28 03:01:59;;;;;;;3.20;1.30;;;;;;;1.24;100.00;92224.03;5087487;28;20523;-78
2023/11/28 03:04:26;;;;;;;4.60;1.60;;;;;;;1.25;100.00;92233.19;5087640;28;20380;-79
2023/11/28 03:06:56;;;;;;;3.38;1.55;;;;;;;0.85;100.00;92170.25;5089888;28;20861;-79
2023/11/28 03:09:23;;;;;;;4.60;2.45;;;;;;;1.16;100.00;92235.03;5087348;28;20052;-78
2023/11/28 03:11:50;;;;;;;4.40;2.38;;;;;;;1.14;100.00;92229.34;5087318;28;20045;-77
2023/11/28 03:14:17;;;;;;;8.45;2.83;;;;;;;1.05;100.00;92211.75;5091174;28;20526;-78
2023/11/28 03:16:44;;;;;;;7.07;1.98;;;;;;;1.13;100.00;92202.50;5086971;28;20515;-78
2023/11/28 03:19:12;;;;;;;3.08;1.67;;;;;;;1.16;100.00;92199.63;5088810;28;20044;-78
2023/11/28 03:21:39;;;;;;;3.40;1.95;;;;;;;0.88;100.00;92160.56;5098678;28;20430;-78
2023/11/28 03:24:07;;;;;;;2.92;1.75;;;;;;;1.22;100.00;92175.34;5105039;28;20051;-78
2023/11/28 03:26:34;;;;;;;3.53;1.60;;;;;;;1.19;100.00;92171.41;5101513;28;20054;-78
2023/11/28 03:29:01;;;;;;;3.65;1.98;;;;;;;1.11;100.00;92154.59;5090700;28;20052;-78
2023/11/28 03:31:28;;;;;;;3.22;1.67;;;;;;;1.12;100.00;92138.50;5087025;28;20884;-78
2023/11/28 03:33:55;;;;;;;3.85;1.85;;;;;;;1.12;100.00;92142.75;5095097;28;20518;-79
2023/11/28 03:36:30;;;;;;;4.35;1.98;;;;;;;1.11;100.00;92153.84;5092313;28;20627;-79
2023/11/28 03:38:57;;;;;;;2.92;1.75;;;;;;;1.02;100.00;92133.69;5091578;28;20519;-77
2023/11/28 03:41:24;;;;;;;2.97;1.52;;;;;;;0.79;100.00;92100.97;5092417;28;20506;-77
2023/11/28 03:43:51;;;;;;;4.82;1.50;;;;;;;0.96;100.00;92148.81;5099760;28;20051;-78
2023/11/28 03:46:25;;;;;;;3.25;1.38;;;;;;;1.02;100.00;92148.88;5090006;28;20044;-77
2023/11/28 03:48:53;;;;;;;3.28;1.42;;;;;;;1.01;100.00;92149.03;5090700;28;20048;-77
2023/11/28 03:51:23;;;;;;;3.95;1.52;;;;;;;1.01;100.00;92149.84;5090866;28;20048;-78
2023/11/28 03:53:51;;;;;;;3.80;1.73;;;;;;;1.05;100.00;92142.66;5092474;28;20166;-78
2023/11/28 03:56:22;;;;;;;3.63;1.90;;;;;;;1.08;100.00;92147.38;5093961;28;20051;-78
2023/11/28 03:58:48;;;;;;;3.53;2.00;;;;;;;1.13;100.00;92142.59;5090397;28;20905;-78
2023/11/28 04:01:16;;;;;;;3.42;1.67;;;;;;;1.01;100.00;92096.72;5090372;28;20524;-78
2023/11/28 04:03:43;;;;;;;2.92;1.83;;;;;;;1.22;100.00;92130.59;5102091;28;20044;-77
2023/11/28 04:06:10;;;;;;;2.10;1.63;;;;;;;1.16;100.00;92127.03;5099328;28;20500;-78
2023/11/28 04:08:37;;;;;;;2.75;1.95;;;;;;;1.22;100.00;92123.00;5090837;28;20051;-78
2023/11/28 04:11:06;;;;;;;2.17;1.65;;;;;;;0.95;100.00;92096.66;5097592;28;20050;-78
2023/11/28 04:13:33;;;;;;;2.50;1.38;;;;;;;1.00;100.00;92107.00;5089939;28;20059;-79
2023/11/28 04:16:00;;;;;;;2.63;1.65;;;;;;;0.90;100.00;92084.56;5089797;28;20048;-79
2023/11/28 04:18:30;;;;;;;2.88;1.73;;;;;;;1.01;100.00;92118.69;5091571;28;20518;-78
2023/11/28 04:20:57;;;;;;;3.40;2.25;;;;;;;1.03;100.00;92126.91;5095747;28;20047;-78
2023/11/28 04:23:24;;;;;;;3.60;1.83;;;;;;;1.04;100.00;92115.81;5096283;28;20067;-78
2023/11/28 04:25:51;;;;;;;3.42;2.00;;;;;;;1.03;100.00;92111.72;5094396;28;20044;-79
2023/11/28 04:28:22;;;;;;;4.78;3.60;;;;;;;1.06;100.00;92111.34;5099376;28;20047;-78
2023/11/28 04:30:49;;;;;;;4.10;2.75;;;;;;;1.09;100.00;92100.91;5090623;28;20077;-77
2023/11/28 04:33:16;;;;;;;3.22;2.65;;;;;;;0.95;100.00;92092.38;5090575;28;20056;-78
2023/11/28 04:35:43;;;;;;;4.13;2.55;;;;;;;0.92;100.00;92075.81;5096501;28;20044;-78
2023/11/28 04:38:10;;;;;;;4.47;2.30;;;;;;;1.07;100.00;92080.06;5092302;28;20050;-78
2023/11/28 04:40:37;;;;;;;2.92;1.85;;;;;;;1.10;100.00;92078.94;5103507;28;20039;-78
2023/11/28 04:43:03;;;;;;;3.20;1.77;;;;;;;1.19;100.00;92078.63;5098863;28;20501;-78
2023/11/28 04:45:32;;;;;;;5.47;3.08;;;;;;;1.09;100.00;92054.56;5096033;28;20048;-78
2023/11/28 04:47:59;;;;;;;3.47;2.42;;;;;;;1.16;100.00;92051.16;5089920;28;20063;-77
2023/11/28 04:50:26;;;;;;;3.60;2.08;;;;;;;1.30;100.00;92036.88;5091208;28;20393;-77
2023/11/28 04:52:53;;;;;;;3.80;2.53;;;;;;;1.30;100.00;92043.69;5089458;28;20155;-77
2023/11/28 04:55:20;;;;;;;4.00;2.67;;;;;;;1.36;100.00;92044.69;5091372;28;20525;-77
2023/11/28 04:57:47;;;;;;;3.15;1.73;;;;;;;1.38;100.00;92042.78;5089610;28;20577;-77
2023/11/28 05:00:15;;;;;;;3.17;1.75;;;;;;;1.35;100.00;92025.44;5092799;28;20051;-77
2023/11/28 05:02:43;;;;;;;3.17;1.88;;;;;;;1.34;100.00;92024.63;5100724;28;20062;-76
2023/11/28 05:05:10;;;;;;;5.45;3.63;;;;;;;1.47;100.00;92029.03;5092330;28;20055;-77
2023/11/28 05:07:37;;;;;;;3.70;2.15;;;;;;;1.38;100.00;92015.72;5090883;28;20119;-77
2023/11/28 05:10:05;;;;;;;7.30;4.15;;;;;;;1.43;100.00;92025.31;5090875;28;20051;-77
2023/11/28 05:12:32;;;;;;;2.78;1.80;;;;;;;1.37;100.00;92015.91;5089207;28;20059;-77
2023/11/28 05:14:59;;;;;;;1.92;1.48;;;;;;;1.56;100.00;92030.47;5091918;28;20379;-78
2023/11/28 05:17:27;;;;;;;5.40;2.90;;;;;;;1.62;100.00;92033.22;5089489;28;20089;-78
2023/11/28 05:19:55;;;;;;;7.65;3.05;;;;;;;1.67;100.00;92033.47;5089663;28;20056;-78
2023/11/28 05:22:22;;;;;;;2.63;1.80;;;;;;;1.71;100.00;92032.13;5097967;28;20495;-78
2023/11/28 05:24:49;;;;;;;5.90;3.47;;;;;;;1.78;100.00;92035.47;5095045;28;20056;-78
2023/11/28 05:27:16;;;;;;;2.97;2.22;;;;;;;1.82;100.00;92035.88;5095758;28;20499;-79
2023/11/28 05:29:43;;;;;;;3.58;2.75;;;;;;;1.82;100.00;92026.56;5099744;28;20067;-79
2023/11/28 05:32:10;;;;;;;3.65;2.50;;;;;;;1.80;100.00;92015.81;5093463;28;20496;-79
2023/11/28 05:34:37;;;;;;;4.10;2.08;;;;;;;1.79;100.00;92004.13;5089891;28;20044;-79
2023/11/28 05:37:05;;;;;;;3.00;1.83;;;;;;;1.80;100.00;91997.31;5094091;28;20407;-82
2023/11/28 05:39:32;;;;;;;9.15;4.78;;;;;;;1.83;100.00;91997.72;5090727;28;20135;-79
2023/11/28 05:41:59;;;;;;;12.05;5.80;;;;;;;1.83;100.00;91990.13;5089515;28;20399;-79
2023/11/28 05:44:26;;;;;;;11.38;6.13;;;;;;;1.72;100.00;91953.44;5088836;28;20076;-78
2023/11/28 05:46:53;;;;;;;11.80;5.53;;;;;;;1.97;100.00;91993.50;5101324;28;20048;-78
2023/11/28 05:49:20;;;;;;;20.42;8.65;;;;;;;1.97;100.00;91990.97;5089733;28;20062;-78
2023/11/28 05:51:47;;;;;;;39.72;16.52;;;;;;;1.93;100.00;91992.31;5096748;28;20039;-78
2023/11/28 05:54:15;;;;;;;26.15;11.48;;;;;;;1.96;100.00;91971.69;5095156;28;20478;-78
2023/11/28 05:56:42;;;;;;;12.50;5.55;;;;;;;1.91;100.00;91958.03;5088897;28;20521;-78
2023/11/28 05:59:10;;;;;;;10.90;4.97;;;;;;;1.87;100.00;91958.38;5102025;28;20046;-78
2023/11/28 06:01:57;;;;;;;6.25;3.85;;;;;;;1.83;100.00;91947.09;5088304;28;20170;-79
2023/11/28 06:04:24;;;;;;;7.45;3.90;;;;;;;1.82;100.00;91942.19;5088270;28;20065;-77
2023/11/28 06:06:51;;;;;;;6.13;3.53;;;;;;;1.79;100.00;91950.94;5101928;28;20053;-77
2023/11/28 06:09:19;;;;;;;10.25;5.82;;;;;;;1.75;100.00;91954.81;5093016;28;20044;-77
2023/11/28 06:11:46;;;;;;;24.60;12.73;;;;;;;1.80;100.00;91952.50;5088923;28;20589;-78
2023/11/28 06:14:13;;;;;;;13.57;6.75;;;;;;;1.80;100.00;91939.84;5088113;28;20044;-77
2023/11/28 06:16:40;;;;;;;19.73;10.20;;;;;;;1.88;100.00;91928.78;5091918;28;20044;-78
2023/11/28 06:19:07;;;;;;;10.50;5.78;;;;;;;1.79;100.00;91940.81;5087521;28;20062;-78
2023/11/28 06:21:35;;;;;;;43.78;20.13;;;;;;;1.90;100.00;91928.59;5092334;28;20051;-78
2023/11/28 06:24:02;;;;;;;17.35;8.18;;;;;;;1.92;100.00;91929.19;5100547;28;20052;-78
2023/11/28 06:26:30;;;;;;;37.17;17.80;;;;;;;1.96;100.00;91910.91;5088339;28;20044;-77
2023/11/28 06:28:57;;;;;;;27.27;14.23;;;;;;;1.91;100.00;91902.31;5095508;28;20043;-78
2023/11/28 06:31:25;;;;;;;14.88;8.48;;;;;;;1.94;100.00;91891.81;5092635;28;20132;-78
2023/11/28 06:33:51;;;;;;;14.68;8.30;;;;;;;2.09;100.00;91909.41;5099944;28;20047;-78
2023/11/28 06:36:19;;;;;;;14.30;7.10;;;;;;;2.25;100.00;91910.78;5099977;28;20076;-78
2023/11/28 06:38:47;;;;;;;22.15;8.82;;;;;;;2.05;100.00;91910.72;5088764;28;20080;-78
2023/11/28 06:41:14;;;;;;;10.30;5.45;;;;;;;2.21;100.00;91910.41;5087917;28;20052;-78
2023/11/28 06:43:42;;;;;;;46.95;17.70;;;;;;;2.25;100.00;91893.06;5088107;28;20044;-77
2023/11/28 06:46:09;;;;;;;17.10;7.38;;;;;;;2.19;100.00;91887.00;5087849;28;20051;-78
2023/11/28 06:48:37;;;;;;;24.17;8.27;;;;;;;2.25;100.00;91888.00;5087732;28;20052;-76
2023/11/28 06:51:05;;;;;;;10.52;5.28;;;;;;;2.19;100.00;91884.47;5087921;28;20040;-77
2023/11/28 06:53:32;;;;;;;30.13;12.23;;;;;;;2.09;100.00;91894.97;5087703;28;20461;-77
2023/11/28 06:55:59;;;;;;;23.23;10.43;;;;;;;2.12;100.00;91888.72;5087657;28;20044;-77
2023/11/28 06:58:26;;;;;;;43.42;19.70;;;;;;;2.17;100.00;91883.88;5093829;28;20180;-78
2023/11/28 07:00:54;;;;;;;36.03;14.88;;;;;;;2.34;100.00;91881.00;5095241;28;20383;-78
2023/11/28 07:03:21;;;;;;;37.90;15.50;;;;;;;2.37;100.00;91880.63;5095191;28;20120;-78
2023/11/28 07:05:48;;;;;;;10.00;4.70;;;;;;;2.42;100.00;91887.63;5098685;28;20044;-78
2023/11/28 07:08:15;;;;;;;12.13;5.85;;;;;;;2.35;100.00;91864.81;5105717;28;20047;-78
2023/11/28 07:10:42;;;;;;;20.13;8.85;;;;;;;2.36;100.00;91872.22;5092813;28;20048;-77
2023/11/28 07:13:09;;;;;;;14.00;7.60;;;;;;;2.33;100.00;91851.56;5091508;28;20061;-77
2023/11/28 07:15:35;;;;;;;62.05;18.10;;;;;;;2.32;100.00;91834.81;5100792;28;20579;-78
2023/11/28 07:18:04;;;;;;;104.70;31.58;;;;;;;2.46;100.00;91830.53;5090531;28;20044;-78
2023/11/28 07:20:31;;;;;;;42.17;14.13;;;;;;;2.46;100.00;91818.63;5091348;28;20050;-77
2023/11/28 07:22:58;;;;;;;29.42;10.65;;;;;;;2.44;100.00;91824.88;5094339;28;20460;-77
2023/11/28 07:25:25;;;;;;;8.43;3.13;;;;;;;2.44;100.00;91807.91;5090982;28;20058;-78
2023/11/28 07:27:51;;;;;;;7.75;4.43;;;;;;;2.41;100.00;91810.84;5093840;28;20731;-78
2023/11/28 07:30:17;;;;;;;12.95;7.13;;;;;;;2.34;100.00;91808.28;5105103;28;20054;-77
2023/11/28 07:32:44;;;;;;;13.18;6.80;;;;;;;2.78;100.00;91811.22;5099219;28;20040;-77
2023/11/28 07:35:13;;;;;;;9.82;5.90;;;;;;;2.72;100.00;91809.47;5091945;28;20043;-79
2023/11/28 07:37:40;;;;;;;8.38;4.38;;;;;;;2.70;100.00;91793.66;5090523;28;20453;-78
2023/11/28 07:40:08;;;;;;;7.30;3.20;;;;;;;2.74;100.00;91784.69;5093390;28;20052;-79
2023/11/28 07:42:35;;;;;;;3.38;1.92;;;;;;;2.65;100.00;91781.56;5090959;28;20059;-79
2023/11/28 07:45:02;;;;;;;4.25;2.25;;;;;;;2.77;100.00;91776.69;5090721;28;20051;-78
2023/11/28 07:47:29;;;;;;;10.02;4.60;;;;;;;2.72;100.00;91780.81;5090677;28;20048;-79
2023/11/28 07:49:56;;;;;;;8.32;4.70;;;;;;;2.77;100.00;91770.81;5090975;28;20051;-78
2023/11/28 07:52:25;;;;;;;28.17;15.85;;;;;;;2.76;100.00;91757.38;5104467;28;20065;-79
2023/11/28 07:54:52;;;;;;;10.02;5.53;;;;;;;2.74;100.00;91754.25;5091246;28;20407;-79
2023/11/28 07:57:19;;;;;;;5.93;3.97;;;;;;;2.62;100.00;91754.09;5091634;28;20244;-79
2023/11/28 07:59:47;;;;;;;6.35;4.25;;;;;;;2.65;100.00;91753.69;5091404;28;20574;-79
2023/11/28 08:02:14;;;;;;;5.22;3.08;;;;;;;2.88;100.00;91765.16;5090643;28;20051;-79
2023/11/28 08:04:41;;;;;;;3.08;2.05;;;;;;;2.74;100.00;91753.47;5106611;28;20431;-80
2023/11/28 08:07:08;;;;;;;2.50;1.50;;;;;;;2.73;100.00;91757.00;5097671;28;20056;-81
2023/11/28 08:09:36;;;;;;;3.65;1.83;;;;;;;2.62;100.00;91758.38;5090254;28;20058;-80
2023/11/28 08:12:03;;;;;;;3.05;1.60;;;;;;;2.65;100.00;91737.69;5089359;28;20415;-80
2023/11/28 08:14:30;;;;;;;4.72;1.80;;;;;;;2.80;100.00;91745.88;5093698;28;20455;-80
2023/11/28 08:16:57;;;;;;;3.50;1.95;;;;;;;2.69;100.00;91749.00;5089880;28;20929;-80
2023/11/28 08:19:24;;;;;;;6.78;2.50;;;;;;;2.69;100.00;91738.88;5089893;28;20044;-81
2023/11/28 08:21:51;;;;;;;3.78;2.47;;;;;;;2.71;100.00;91719.16;5097637;28;20059;-83
2023/11/28 08:24:18;;;;;;;3.67;1.60;;;;;;;2.78;100.00;91717.38;5093484;28;20396;-82
2023/11/28 08:26:47;;;;;;;3.15;1.88;;;;;;;2.85;100.00;91707.22;5091017;28;20090;-83
2023/11/28 08:29:14;;;;;;;2.90;2.00;;;;;;;2.86;100.00;91708.78;5094492;28;20055;-82
2023/11/28 08:31:41;;;;;;;3.05;2.28;;;;;;;2.85;100.00;91712.31;5089731;28;20048;-83
2023/11/28 08:34:09;;;;;;;4.57;2.83;;;;;;;2.72;100.00;91687.75;5089783;28;20414;-84
2023/11/28 08:36:35;;;;;;;4.95;3.22;;;;;;;2.83;100.00;91703.34;5099019;28;20046;-83
2023/11/28 08:39:05;;;;;;;3.08;2.45;;;;;;;2.85;100.00;91693.75;5090827;28;20050;-85
2023/11/28 08:41:31;;;;;;;4.53;2.30;;;;;;;3.05;100.00;91679.25;5092047;28;20097;-83
2023/11/28 08:44:00;;;;;;;6.18;2.60;;;;;;;3.02;100.00;91677.09;5091497;28;20487;-84
2023/11/28 08:46:27;;;;;;;2.63;2.10;;;;;;;3.05;100.00;91679.25;5095670;28;20066;-84
2023/11/28 08:48:53;;;;;;;4.20;1.70;;;;;;;3.08;100.00;91662.84;5096270;28;20429;-84
2023/11/28 08:51:21;;;;;;;4.18;1.67;;;;;;;3.03;100.00;91655.06;5090435;28;20075;-86
2023/11/28 08:53:48;;;;;;;3.03;2.00;;;;;;;3.18;100.00;91649.72;5092481;28;20052;-86
2023/11/28 08:56:15;;;;;;;5.85;2.10;;;;;;;3.32;100.00;91647.91;5092770;28;20506;-85
2023/11/28 08:58:42;;;;;;;3.88;2.08;;;;;;;3.41;100.00;91643.34;5093500;28;20485;-86
2023/11/28 09:01:10;;;;;;;2.35;1.55;;;;;;;3.41;100.00;91644.16;5090196;28;20048;-86
2023/11/28 09:03:37;;;;;;;2.10;1.40;;;;;;;3.40;100.00;91629.91;5092529;28;20048;-86
2023/11/28 09:06:05;;;;;;;2.13;1.40;;;;;;;3.51;100.00;91645.47;5096982;28;20062;-86
2023/11/28 09:08:32;;;;;;;2.10;1.40;;;;;;;3.50;100.00;91626.91;5091564;28;20052;-86
2023/11/28 09:10:59;;;;;;;3.25;2.00;;;;;;;3.51;100.00;91628.47;5093031;28;20075;-86
2023/11/28 09:13:26;;;;;;;3.15;1.60;;;;;;;3.56;100.00;91623.53;5094353;28;20047;-86
2023/11/28 09:15:54;;;;;;;4.88;2.15;;;;;;;3.57;100.00;91596.41;5089865;28;20048;-85
2023/11/28 09:18:22;;;;;;;3.97;2.75;;;;;;;3.72;100.00;91618.94;5091398;28;20040;-86
2023/11/28 09:20:49;;;;;;;5.60;3.38;;;;;;;3.88;100.00;91602.41;5092909;28;20424;-86
2023/11/28 09:23:16;;;;;;;5.88;3.08;;;;;;;3.83;100.00;91587.78;5094379;28;20492;-84
2023/11/28 09:25:43;;;;;;;7.45;4.40;;;;;;;4.10;100.00;91600.25;5093723;28;20052;-86
2023/11/28 09:28:11;;;;;;;7.70;5.63;;;;;;;3.90;100.00;91569.16;5095209;28;20044;-86
2023/11/28 09:30:39;;;;;;;6.40;4.47;;;;;;;4.06;100.00;91594.03;5091308;28;20059;-86
2023/11/28 09:33:06;;;;;;;12.00;5.47;;;;;;;4.10;100.00;91590.09;5096593;28;20051;-86
2023/11/28 09:35:35;;;;;;;8.45;5.13;;;;;;;4.05;100.00;91571.38;5093679;28;20048;-86
2023/11/28 09:38:01;;;;;;;6.07;4.55;;;;;;;4.13;100.00;91582.03;5094499;28;20407;-85
2023/11/28 09:40:28;;;;;;;8.50;3.90;;;;;;;4.19;100.00;91564.41;5088921;28;20052;-85
2023/11/28 09:42:57;;;;;;;5.97;4.07;;;;;;;4.25;100.00;91559.25;5089722;28;20070;-84
2023/11/28 09:45:25;;;;;;;4.53;3.13;;;;;;;4.16;100.00;91547.81;5088787;28;20051;-84
2023/11/28 09:47:55;;;;;;;4.95;3.20;;;;;;;4.22;100.00;91559.66;5100747;28;20043;-84
2023/11/28 09:50:24;;;;;;;3.70;2.80;;;;;;;4.11;100.00;91534.97;5092923;28;20285;-84
2023/11/28 09:52:54;;;;;;;5.03;3.08;;;;;;;4.02;100.00;91514.13;5091135;28;20067;-85
2023/11/28 09:55:23;;;;;;;5.28;3.47;;;;;;;4.28;100.00;91545.34;5089342;28;20058;-84
2023/11/28 09:57:52;;;;;;;5.13;3.25;;;;;;;4.16;100.00;91524.19;5091917;28;20052;-85
2023/11/28 10:00:20;;;;;;;7.63;5.60;;;;;;;4.25;100.00;91526.22;5097164;28;20051;-85
2023/11/28 10:02:48;;;;;;;12.15;8.40;;;;;;;4.25;100.00;91526.22;5090380;28;20048;-82
2023/11/28 10:05:16;;;;;;;15.48;9.35;;;;;;;4.18;100.00;91514.56;5089257;28;20054;-82
2023/11/28 10:07:45;;;;;;;18.85;12.20;;;;;;;4.19;100.00;91495.78;5088269;28;20051;-80
2023/11/28 10:10:15;;;;;;;12.75;6.75;;;;;;;4.01;100.00;91479.56;5090598;28;20052;-80
2023/11/28 10:12:42;;;;;;;7.20;4.57;;;;;;;3.98;100.00;91475.69;5089987;28;20055;-79
2023/11/28 10:15:11;;;;;;;9.55;6.35;;;;;;;4.00;100.00;91478.00;5090693;28;20052;-80
2023/11/28 10:17:39;;;;;;;16.17;9.65;;;;;;;3.57;100.00;91424.53;5089131;28;20517;-81
2023/11/28 10:20:07;;;;;;;12.77;6.70;;;;;;;3.89;100.00;91474.41;5090049;28;20054;-80
2023/11/28 10:22:34;;;;;;;24.45;12.30;;;;;;;3.85;100.00;91447.88;5090750;28;20044;-80
2023/11/28 10:25:07;;;;;;;28.00;15.85;;;;;;;3.92;100.00;91461.28;5097221;28;20051;-81
2023/11/28 10:27:40;;;;;;;14.80;8.35;;;;;;;3.82;100.00;91449.09;5094612;28;20058;-81
2023/11/28 10:30:10;;;;;;;20.08;10.77;;;;;;;3.84;100.00;91446.34;5091225;28;20052;-81
2023/11/28 10:32:37;;;;;;;15.65;8.57;;;;;;;3.78;100.00;91435.25;5091247;28;20044;-80
2023/11/28 10:35:05;;;;;;;12.77;7.82;;;;;;;3.69;100.00;91427.16;5091885;28;20048;-80
2023/11/28 10:37:35;;;;;;;19.85;10.60;;;;;;;3.73;100.00;91425.75;5089041;28;20143;-79
2023/11/28 10:40:05;;;;;;;14.30;8.10;;;;;;;3.71;100.00;91415.00;5095546;28;20058;-79
2023/11/28 10:42:32;;;;;;;18.38;10.02;;;;;;;3.81;100.00;91403.56;5098652;28;20060;-79
2023/11/28 10:45:01;;;;;;;22.10;12.23;;;;;;;3.64;100.00;91388.13;5095757;28;20054;-79
2023/11/28 10:47:30;;;;;;;26.33;13.05;;;;;;;3.74;100.00;91386.66;5090593;28;20046;-78
2023/11/28 10:49:57;;;;;;;16.95;9.20;;;;;;;3.77;100.00;91379.59;5094221;28;20052;-78
2023/11/28 10:52:27;;;;;;;22.23;13.07;;;;;;;3.78;100.00;91365.91;5093591;28;20052;-78
2023/11/28 10:54:57;;;;;;;13.45;8.82;;;;;;;3.76;100.00;91347.56;5095785;28;20047;-78
2023/11/28 10:57:28;;;;;;;16.98;10.35;;;;;;;3.80;100.00;91356.31;5093791;28;20171;-78
2023/11/28 11:00:02;;;;;;;16.20;8.98;;;;;;;3.85;100.00;91347.06;5092148;28;21007;-78
2023/11/28 11:02:30;;;;;;;15.85;9.60;;;;;;;3.83;100.00;91349.03;5092912;28;20054;-78
2023/11/28 11:04:57;;;;;;;19.75;11.98;;;;;;;3.97;100.00;91349.66;5095433;28;20051;-78
2023/11/28 11:07:26;;;;;;;38.38;17.02;;;;;;;4.04;100.00;91329.25;5092037;27;20159;-78
2023/11/28 11:09:53;;;;;;;32.70;15.65;;;;;;;4.13;100.00;91324.63;5091822;28;20055;-78
2023/11/28 11:12:21;;;;;;;29.65;13.85;;;;;;;4.09;100.00;91320.97;5096577;28;20146;-78
2023/11/28 11:14:53;;;;;;;23.33;12.88;;;;;;;4.11;100.00;91309.59;5092994;28;20051;-78
2023/11/28 11:17:36;;;;;;;12.35;7.70;;;;;;;4.15;100.00;91304.84;5092247;28;20418;-78
2023/11/28 11:20:07;;;;;;;16.85;10.02;;;;;;;4.07;100.00;91293.22;5090886;28;20044;-78
2023/11/28 11:22:40;;;;;;;10.43;6.47;;;;;;;4.27;100.00;91290.41;5095101;28;20052;-78
2023/11/28 11:25:08;;;;;;;25.13;14.73;;;;;;;4.26;100.00;91280.47;5096911;28;20060;-78
2023/11/28 11:27:35;;;;;;;16.55;10.15;;;;;;;4.23;100.00;91263.88;5093573;28;20087;-78
2023/11/28 11:30:05;;;;;;;16.60;9.75;;;;;;;4.27;100.00;91264.97;5091368;28;20131;-78
2023/11/28 11:32:35;;;;;;;24.92;14.02;;;;;;;4.34;100.00;91259.00;5092960;28;20082;-79
2023/11/28 11:35:04;;;;;;;16.85;9.23;;;;;;;4.37;100.00;91256.84;5093892;28;21161;-78